createdAt,value
2024-04-11T00:04:02.416Z,0.50
2024-04-11T00:09:01.982Z,0.30
2024-04-11T00:14:01.184Z,0.20
2024-04-11T00:19:00.074Z,0.30
2024-04-11T00:23:58.837Z,0.40
2024-04-11T00:28:58.170Z,0.20
2024-04-11T00:34:14.194Z,0.20
2024-04-11T00:39:19.917Z,0.20
2024-04-11T00:44:20.131Z,0.20
2024-04-11T00:49:21.299Z,0.20
2024-04-11T00:54:24.030Z,0.20
2024-04-11T00:59:22.838Z,0.30
2024-04-11T01:04:23.659Z,0.10
2024-04-11T01:09:23.125Z,0.10
2024-04-11T01:14:22.166Z,0.10
2024-04-11T01:19:21.938Z,0.30
2024-04-11T01:24:20.369Z,0.20
2024-04-11T01:29:19.772Z,0.10
2024-04-11T01:34:19.480Z,0.20
2024-04-11T01:39:18.514Z,0.20
2024-04-11T01:44:17.774Z,0.20
2024-04-11T01:49:18.165Z,0.10
2024-04-11T01:54:17.632Z,0.20
2024-04-11T01:59:17.939Z,0.20
2024-04-11T02:04:16.779Z,0.30
2024-04-11T02:09:21.515Z,0.20
2024-04-11T02:14:20.450Z,0.20
2024-04-11T02:19:19.434Z,0.10
2024-04-11T02:24:18.826Z,0.20
2024-04-11T02:29:19.487Z,0.20
2024-04-11T02:34:19.457Z,0.40
2024-04-11T02:39:19.006Z,0.40
2024-04-11T02:44:21.676Z,0.50
2024-04-11T02:49:20.753Z,0.40
2024-04-11T02:54:19.510Z,0.20
2024-04-11T02:59:18.886Z,0.30
2024-04-11T03:04:18.568Z,0.20
2024-04-11T03:09:19.570Z,0.30
2024-04-11T03:14:18.530Z,0.30
2024-04-11T03:19:18.048Z,0.30
2024-04-11T03:24:17.485Z,0.40
2024-04-11T03:29:16.415Z,0.30
2024-04-11T03:34:16.236Z,0.30
2024-04-11T03:39:16.525Z,0.60
2024-04-11T03:44:15.529Z,0.60
2024-04-11T03:49:15.365Z,0.50
2024-04-11T03:54:14.634Z,0.60
2024-04-11T03:59:13.886Z,2.00
2024-04-11T04:04:13.095Z,2.30
2024-04-11T04:09:12.390Z,1.90
2024-04-11T04:14:14.300Z,1.90
2024-04-11T04:19:15.699Z,1.40
2024-04-11T04:24:14.902Z,0.80
2024-04-11T04:29:13.841Z,1.10
2024-04-11T04:34:14.093Z,1.20
2024-04-11T04:39:18.136Z,1.10
2024-04-11T04:44:20.504Z,0.80
2024-04-11T04:49:21.117Z,1.40
2024-04-11T04:54:21.152Z,0.90
2024-04-11T04:59:20.496Z,0.80
2024-04-11T05:04:20.101Z,1.90
2024-04-11T05:09:19.097Z,1.00
2024-04-11T05:14:18.206Z,1.10
2024-04-11T05:19:18.980Z,1.20
2024-04-11T05:24:18.094Z,0.70
2024-04-11T05:29:18.547Z,0.70
2024-04-11T05:34:21.853Z,0.90
2024-04-11T05:39:21.994Z,0.70
2024-04-11T05:44:21.445Z,0.70
2024-04-11T05:49:21.655Z,0.70
2024-04-11T05:54:21.873Z,0.80
2024-04-11T05:59:22.525Z,0.50
2024-04-11T06:04:27.202Z,0.70
2024-04-11T06:09:29.057Z,0.60
2024-04-11T06:14:27.835Z,0.80
2024-04-11T06:19:26.956Z,0.70
2024-04-11T06:24:26.400Z,0.70
2024-04-11T06:29:25.616Z,0.90
2024-04-11T06:34:26.536Z,0.80
2024-04-11T06:39:26.343Z,0.80
2024-04-11T06:44:25.258Z,0.40
2024-04-11T06:49:26.587Z,0.20
2024-04-11T06:54:27.508Z,0.20
2024-04-11T06:59:27.887Z,0.40
2024-04-11T07:04:27.517Z,0.20
2024-04-11T07:09:39.131Z,0.30
2024-04-11T07:14:39.348Z,0.20
2024-04-11T07:19:40.486Z,0.60
2024-04-11T07:24:39.320Z,0.20
2024-04-11T07:29:38.383Z,0.40
2024-04-11T07:34:37.662Z,0.40
2024-04-11T07:39:39.922Z,0.30
2024-04-11T07:44:39.121Z,0.60
2024-04-11T07:49:38.984Z,0.20
2024-04-11T07:54:45.615Z,0.20
2024-04-11T07:59:50.540Z,0.50
2024-04-11T08:04:49.516Z,0.20
2024-04-11T08:09:57.256Z,0.40
2024-04-11T08:14:56.534Z,0.30
2024-04-11T08:19:58.556Z,0.40
2024-04-11T08:24:59.809Z,0.80
2024-04-11T08:29:58.798Z,0.60
2024-04-11T08:34:58.431Z,0.20
2024-04-11T08:40:00.677Z,0.40
2024-04-11T08:45:01.658Z,0.60
2024-04-11T08:50:00.606Z,0.30
2024-04-11T08:55:00.705Z,0.30
2024-04-11T09:00:03.782Z,0.40
2024-04-11T09:05:10.711Z,0.20
2024-04-11T09:10:15.668Z,0.60
2024-04-11T09:15:16.716Z,0.40
2024-04-11T09:20:21.492Z,0.30
2024-04-11T09:25:23.966Z,0.20
2024-04-11T09:30:40.915Z,0.40
2024-04-11T09:35:48.347Z,0.40
2024-04-11T09:40:54.683Z,0.50
2024-04-11T09:45:57.872Z,0.60
2024-04-11T09:50:59.627Z,0.50
2024-04-11T09:56:00.854Z,0.30
2024-04-11T10:01:10.680Z,0.30
2024-04-11T10:06:15.854Z,0.40
2024-04-11T10:11:18.821Z,0.30
2024-04-11T10:16:31.097Z,0.30
2024-04-11T10:21:53.585Z,0.30
2024-04-11T10:26:56.397Z,0.50
2024-04-11T10:32:00.105Z,0.20
2024-04-11T10:37:13.852Z,0.30
2024-04-11T10:42:15.695Z,0.40
2024-04-11T10:47:18.894Z,0.50
2024-04-11T10:52:18.085Z,0.30
2024-04-11T10:57:18.391Z,0.30
2024-04-11T11:02:21.295Z,0.30
2024-04-11T11:07:25.380Z,0.30
2024-04-11T11:12:25.934Z,0.20
2024-04-11T11:17:29.325Z,0.40
2024-04-11T11:22:35.723Z,0.20
2024-04-11T11:27:35.281Z,0.40
2024-04-11T11:32:37.306Z,0.40
2024-04-11T11:37:36.841Z,0.30
2024-04-11T11:42:37.300Z,0.40
2024-04-11T11:47:38.034Z,0.50
2024-04-11T11:52:38.144Z,0.70
2024-04-11T11:57:44.165Z,0.40
2024-04-11T12:02:43.537Z,0.50
2024-04-11T12:07:47.235Z,0.50
2024-04-11T12:12:55.095Z,0.50
2024-04-11T12:17:57.135Z,0.40
2024-04-11T12:23:00.193Z,0.20
2024-04-11T12:28:00.114Z,0.80
2024-04-11T12:32:59.355Z,0.30
2024-04-11T12:37:59.019Z,0.60
2024-04-11T12:42:57.538Z,0.50
2024-04-11T12:48:06.758Z,0.50
2024-04-11T12:53:12.128Z,0.40
2024-04-11T12:58:15.961Z,0.70
2024-04-11T13:03:21.571Z,0.50
2024-04-11T13:08:29.672Z,0.30
2024-04-11T13:13:31.717Z,0.70
2024-04-11T13:18:31.378Z,0.80
2024-04-11T13:23:34.086Z,0.60
2024-04-11T13:28:32.833Z,0.90
2024-04-11T13:33:33.223Z,0.70
2024-04-11T13:38:38.655Z,0.60
2024-04-11T13:43:38.882Z,0.90
2024-04-11T13:48:41.522Z,1.20
2024-04-11T13:53:45.658Z,1.30
2024-04-11T13:58:50.383Z,0.80
2024-04-11T14:03:49.776Z,0.80
2024-04-11T14:08:50.470Z,1.10
2024-04-11T14:13:55.144Z,1.10
2024-04-11T14:18:54.072Z,1.00
2024-04-11T14:24:06.692Z,1.10
2024-04-11T14:29:07.860Z,0.60
2024-04-11T14:34:24.287Z,0.90
2024-04-11T14:39:24.159Z,1.40
2024-04-11T14:44:23.161Z,1.30
2024-04-11T14:49:21.927Z,0.90
2024-04-11T14:54:28.865Z,1.20
2024-04-11T14:59:32.485Z,1.00
2024-04-11T15:04:33.898Z,1.20
2024-04-11T15:09:37.073Z,0.90
2024-04-11T15:14:35.941Z,1.00
2024-04-11T15:19:35.321Z,1.00
2024-04-11T15:24:35.778Z,0.90
2024-04-11T15:29:54.277Z,1.20
2024-04-11T15:34:55.091Z,1.10
2024-04-11T15:40:01.052Z,0.70
2024-04-11T15:45:04.996Z,1.10
2024-04-11T15:50:07.320Z,0.70
2024-04-11T15:55:14.231Z,0.90
2024-04-11T16:00:28.762Z,0.70
2024-04-11T16:05:29.549Z,0.80
2024-04-11T16:10:30.000Z,0.90
2024-04-11T16:15:32.677Z,0.90
2024-04-11T16:20:33.052Z,0.90
2024-04-11T16:25:34.493Z,1.30
2024-04-11T16:31:00.199Z,0.90
2024-04-11T16:36:00.794Z,0.80
2024-04-11T16:41:07.618Z,0.80
2024-04-11T16:46:08.560Z,1.20
2024-04-11T16:51:07.917Z,0.70
2024-04-11T16:56:13.053Z,1.20
2024-04-11T17:01:11.706Z,0.80
2024-04-11T17:06:15.300Z,0.60
2024-04-11T17:11:21.540Z,1.00
2024-04-11T17:16:42.111Z,0.90
2024-04-11T17:21:55.831Z,0.70
2024-04-11T17:26:59.373Z,0.60
2024-04-11T17:32:04.440Z,0.70
2024-04-11T17:37:16.510Z,0.80
2024-04-11T17:42:18.333Z,1.00
2024-04-11T17:47:22.358Z,1.30
2024-04-11T17:52:28.250Z,0.90
2024-04-11T17:57:27.389Z,1.00
2024-04-11T18:02:31.526Z,0.90
2024-04-11T18:07:33.626Z,0.90
2024-04-11T18:12:33.599Z,0.80
2024-04-11T18:17:32.880Z,0.70
2024-04-11T18:22:36.746Z,1.00
2024-04-11T18:27:41.575Z,0.90
2024-04-11T18:32:41.866Z,1.30
2024-04-11T18:37:50.826Z,0.90
2024-04-11T18:42:59.458Z,1.00
2024-04-11T18:48:00.746Z,1.40
2024-04-11T18:53:03.008Z,1.60
2024-04-11T18:58:03.259Z,1.70
2024-04-11T19:03:16.648Z,1.80
2024-04-11T19:08:18.850Z,1.70
2024-04-11T19:13:19.774Z,2.00
2024-04-11T19:18:26.300Z,2.00
2024-04-11T19:23:27.635Z,2.10
2024-04-11T19:28:32.666Z,1.70
2024-04-11T19:33:32.270Z,1.70
2024-04-11T19:38:38.846Z,2.10
2024-04-11T19:43:43.015Z,2.00
2024-04-11T19:48:49.176Z,2.10
2024-04-11T19:53:54.367Z,1.80
2024-04-11T19:58:58.606Z,2.50
2024-04-11T20:03:59.793Z,2.10
2024-04-11T20:09:00.977Z,1.90
2024-04-11T20:14:17.687Z,1.80
2024-04-11T20:19:16.935Z,2.40
2024-04-11T20:24:16.803Z,2.60
2024-04-11T20:29:18.236Z,2.80
2024-04-11T20:34:17.594Z,2.60
2024-04-11T20:39:24.589Z,2.30
2024-04-11T20:44:29.982Z,2.60
2024-04-11T20:49:58.740Z,2.30
2024-04-11T20:55:15.245Z,2.70
2024-04-11T21:00:33.006Z,2.40
2024-04-11T21:05:49.361Z,2.80
2024-04-11T21:11:05.847Z,3.20
2024-04-11T21:16:22.659Z,3.10
2024-04-11T21:21:38.956Z,2.80
2024-04-11T21:26:55.510Z,2.30
2024-04-11T21:32:11.506Z,2.40
2024-04-11T21:37:13.692Z,2.30
2024-04-11T21:42:15.566Z,2.40
2024-04-11T21:47:14.906Z,2.90
2024-04-11T21:52:13.628Z,2.70
2024-04-11T21:57:15.725Z,2.60
2024-04-11T22:02:23.299Z,2.50
2024-04-11T22:07:25.891Z,2.90
2024-04-11T22:12:30.057Z,2.40
2024-04-11T22:17:34.955Z,2.50
2024-04-11T22:22:46.398Z,3.30
2024-04-11T22:27:50.224Z,2.50
2024-04-11T22:32:55.486Z,2.90
2024-04-11T22:37:56.637Z,2.50
2024-04-11T22:42:55.933Z,2.80
2024-04-11T22:47:54.871Z,2.70
2024-04-11T22:52:54.278Z,2.30
2024-04-11T22:57:59.529Z,2.40
2024-04-11T23:03:01.808Z,2.40
2024-04-11T23:08:01.084Z,2.50
2024-04-11T23:13:09.896Z,2.30
2024-04-11T23:18:09.291Z,2.20
2024-04-11T23:23:18.034Z,2.50
2024-04-11T23:28:17.912Z,2.40
2024-04-11T23:33:22.357Z,2.40
2024-04-11T23:38:23.126Z,1.70
2024-04-11T23:43:26.792Z,1.50
2024-04-11T23:48:26.193Z,2.50
2024-04-11T23:53:29.461Z,2.10
2024-04-11T23:58:47.057Z,2.20
